Time;durP1;ratioP1;P1;durP2;ratioP2;P2;SDS_P1;SDS_P2;PMS_P1;PMS_P2;Temp;Humidity;BMP_temperature;BMP_pressure;BME280_temperature;BME280_humidity;BME280_pressure;Samples;Min_cycle;Max_cycle;Signal;HPM_P1;HPM_P2
2023/05/31 00:02:02;;;;;;;6.68;3.38;;;16.00;99.90;;;;;;4999876;28;20037;-69
2023/05/31 00:04:28;;;;;;;7.53;3.33;;;15.90;99.90;;;;;;4999689;28;20026;-69
2023/05/31 00:06:54;;;;;;;5.50;3.25;;;16.00;99.90;;;;;;4999702;28;20027;-69
2023/05/31 00:09:19;;;;;;;8.85;3.17;;;15.80;99.90;;;;;;5000237;28;20022;-69
2023/05/31 00:11:45;;;;;;;11.80;3.88;;;15.70;99.90;;;;;;5000427;28;20030;-69
2023/05/31 00:14:10;;;;;;;8.68;3.92;;;15.80;99.90;;;;;;4999351;28;20058;-69
2023/05/31 00:16:36;;;;;;;6.35;2.70;;;16.00;99.90;;;;;;4999096;28;20030;-69
2023/05/31 00:19:01;;;;;;;6.43;3.20;;;16.00;99.90;;;;;;4999433;28;20022;-69
2023/05/31 00:21:27;;;;;;;11.18;3.58;;;16.00;99.90;;;;;;5000142;28;20026;-69
2023/05/31 00:23:53;;;;;;;6.00;3.15;;;16.00;99.90;;;;;;5000028;28;20033;-69
2023/05/31 00:26:18;;;;;;;10.20;3.65;;;16.00;99.90;;;;;;4999068;28;20057;-69
2023/05/31 00:28:44;;;;;;;8.93;4.80;;;15.90;99.90;;;;;;5022932;22;20035;-68
2023/05/31 00:31:10;;;;;;;8.27;3.33;;;15.70;99.90;;;;;;4999237;28;20043;-68
2023/05/31 00:33:36;;;;;;;7.32;3.15;;;15.70;99.90;;;;;;5015303;28;20121;-68
2023/05/31 00:36:02;;;;;;;10.15;4.03;;;15.60;99.90;;;;;;4999254;28;20077;-68
2023/05/31 00:38:27;;;;;;;11.60;3.63;;;15.60;99.90;;;;;;5015119;28;20023;-70
2023/05/31 00:40:53;;;;;;;6.93;3.47;;;15.70;99.90;;;;;;5014425;28;20033;-70
2023/05/31 00:43:18;;;;;;;6.78;3.60;;;15.80;99.90;;;;;;4998830;28;20058;-70
2023/05/31 00:45:44;;;;;;;12.40;4.60;;;15.90;99.90;;;;;;4998846;28;20029;-70
2023/05/31 00:48:10;;;;;;;9.05;3.60;;;15.60;99.90;;;;;;4999148;28;20026;-70
2023/05/31 00:50:35;;;;;;;12.65;4.22;;;15.60;99.90;;;;;;4999500;28;20022;-70
2023/05/31 00:53:03;;;;;;;9.52;3.80;;;15.30;99.90;;;;;;4998576;28;20022;-70
2023/05/31 00:55:29;;;;;;;9.15;3.03;;;15.50;99.90;;;;;;4998899;28;20046;-70
2023/05/31 00:57:56;;;;;;;7.80;3.88;;;15.80;99.90;;;;;;4998750;28;20026;-70
2023/05/31 01:00:22;;;;;;;10.20;3.95;;;15.50;99.90;;;;;;4998498;28;20032;-70
2023/05/31 01:02:50;;;;;;;9.40;3.72;;;15.40;99.90;;;;;;5015100;28;20018;-70
2023/05/31 01:05:16;;;;;;;10.10;4.20;;;15.60;99.90;;;;;;4998666;28;20038;-70
2023/05/31 01:07:41;;;;;;;8.90;3.45;;;15.50;99.90;;;;;;4998759;28;20030;-70
2023/05/31 01:10:08;;;;;;;8.65;3.63;;;15.80;99.90;;;;;;4999284;28;20018;-70
2023/05/31 01:12:52;;;;;;;6.55;3.95;;;15.70;99.90;;;;;;4998974;28;20085;-68
2023/05/31 01:15:27;;;;;;;9.90;3.65;;;15.60;99.90;;;;;;4998234;28;20030;-68
2023/05/31 01:18:09;;;;;;;9.57;4.13;;;15.50;99.90;;;;;;4998967;28;20030;-68
2023/05/31 01:20:37;;;;;;;14.38;3.75;;;15.20;99.90;;;;;;4998166;28;20030;-68
2023/05/31 01:23:27;;;;;;;12.77;4.35;;;15.30;99.90;;;;;;4998143;28;20026;-68
2023/05/31 01:26:05;;;;;;;12.80;4.30;;;15.40;99.90;;;;;;5014243;28;20118;-68
2023/05/31 01:28:35;;;;;;;7.15;3.47;;;15.10;99.90;;;;;;4998666;28;20082;-67
2023/05/31 01:31:04;;;;;;;8.65;4.15;;;15.30;99.90;;;;;;4998889;28;20026;-67
2023/05/31 01:33:30;;;;;;;11.05;4.63;;;15.10;99.90;;;;;;4997726;28;20018;-68
2023/05/31 01:35:56;;;;;;;11.30;4.25;;;15.00;99.90;;;;;;4998708;28;20054;-68
2023/05/31 01:38:21;;;;;;;8.68;3.90;;;14.80;99.90;;;;;;4997706;28;20038;-68
2023/05/31 01:40:47;;;;;;;9.50;3.92;;;15.10;99.90;;;;;;4998096;28;20117;-68
2023/05/31 01:43:14;;;;;;;17.95;5.38;;;15.00;99.90;;;;;;4998214;28;20034;-68
2023/05/31 01:45:40;;;;;;;9.25;4.50;;;14.90;99.90;;;;;;4998283;28;20026;-68
2023/05/31 01:48:08;;;;;;;13.93;4.55;;;14.90;99.90;;;;;;4998623;28;20090;-67
2023/05/31 01:50:35;;;;;;;7.60;3.80;;;14.80;99.90;;;;;;4998336;28;20018;-68
2023/05/31 01:53:01;;;;;;;11.65;3.63;;;15.00;99.90;;;;;;4997749;28;20049;-68
2023/05/31 01:55:28;;;;;;;7.93;3.97;;;15.00;99.90;;;;;;4997463;28;20027;-68
2023/05/31 01:57:55;;;;;;;9.80;4.68;;;14.90;99.90;;;;;;4997605;28;20026;-68
2023/05/31 02:00:22;;;;;;;8.35;4.20;;;14.80;99.90;;;;;;4997506;28;20037;-67
2023/05/31 02:02:50;;;;;;;9.55;4.63;;;14.90;99.90;;;;;;4997731;28;20030;-68
2023/05/31 02:05:15;;;;;;;8.60;3.95;;;14.90;99.90;;;;;;4997840;28;20036;-68
2023/05/31 02:07:44;;;;;;;11.35;4.28;;;14.90;99.90;;;;;;4997897;28;20022;-68
2023/05/31 02:10:11;;;;;;;7.40;4.03;;;14.90;99.90;;;;;;4997426;28;20119;-68
2023/05/31 02:12:37;;;;;;;13.25;3.90;;;14.90;99.90;;;;;;4997507;28;20029;-68
2023/05/31 02:15:03;;;;;;;12.13;4.68;;;14.70;99.90;;;;;;4997416;28;20033;-68
2023/05/31 02:17:32;;;;;;;9.00;3.78;;;14.80;99.90;;;;;;4997054;28;20038;-68
2023/05/31 02:19:58;;;;;;;10.35;4.47;;;14.70;99.90;;;;;;4997187;28;20050;-68
2023/05/31 02:22:24;;;;;;;10.57;4.35;;;14.80;99.90;;;;;;4996941;28;20121;-68
2023/05/31 02:24:50;;;;;;;9.23;4.40;;;14.50;99.90;;;;;;4997159;28;20042;-68
2023/05/31 02:27:15;;;;;;;12.82;5.05;;;14.30;99.90;;;;;;4996901;28;20022;-67
2023/05/31 02:29:44;;;;;;;11.93;4.40;;;14.40;99.90;;;;;;4997236;28;20081;-68
2023/05/31 02:32:10;;;;;;;14.45;4.60;;;14.40;99.90;;;;;;4997187;28;20046;-67
2023/05/31 02:34:36;;;;;;;8.45;4.72;;;14.20;99.90;;;;;;4997665;28;20029;-68
2023/05/31 02:37:02;;;;;;;12.48;4.35;;;14.10;99.90;;;;;;4997006;28;20022;-68
2023/05/31 02:39:28;;;;;;;9.38;3.90;;;14.20;99.90;;;;;;4997953;28;20026;-67
2023/05/31 02:41:53;;;;;;;10.23;4.68;;;14.20;99.90;;;;;;4997126;28;20030;-68
2023/05/31 02:44:20;;;;;;;8.13;3.85;;;14.20;99.90;;;;;;4997294;28;20027;-67
2023/05/31 02:46:45;;;;;;;9.27;4.13;;;14.30;99.90;;;;;;4996703;28;20106;-68
2023/05/31 02:49:11;;;;;;;11.18;4.85;;;14.50;99.90;;;;;;5013071;28;20042;-68
2023/05/31 02:51:36;;;;;;;18.30;4.82;;;14.30;99.90;;;;;;4997078;28;20117;-72
2023/05/31 02:54:02;;;;;;;10.05;4.70;;;14.20;99.90;;;;;;4997627;28;20018;-72
2023/05/31 02:56:27;;;;;;;9.80;4.10;;;14.10;99.90;;;;;;4997091;28;20026;-72
2023/05/31 02:58:53;;;;;;;11.07;4.60;;;14.00;99.90;;;;;;4997223;28;20028;-72
2023/05/31 03:01:18;;;;;;;8.15;4.18;;;14.10;99.90;;;;;;4997023;28;20026;-72
2023/05/31 03:03:44;;;;;;;12.07;5.38;;;14.10;99.90;;;;;;4999500;28;20034;-72
2023/05/31 03:06:11;;;;;;;8.45;4.70;;;14.00;99.90;;;;;;5000527;28;20089;-72
2023/05/31 03:08:37;;;;;;;10.65;4.63;;;14.10;99.90;;;;;;5001515;28;20022;-72
2023/05/31 03:11:02;;;;;;;12.05;4.50;;;14.00;99.90;;;;;;5000595;28;20033;-72
2023/05/31 03:13:28;;;;;;;15.18;4.43;;;14.10;99.90;;;;;;5000579;28;20029;-72
2023/05/31 03:15:54;;;;;;;12.50;5.20;;;14.10;99.90;;;;;;5000677;28;20022;-72
2023/05/31 03:18:20;;;;;;;15.00;5.18;;;14.00;99.90;;;;;;5000434;28;20018;-72
2023/05/31 03:20:45;;;;;;;8.75;4.72;;;14.00;99.90;;;;;;5000652;28;20022;-72
2023/05/31 03:23:11;;;;;;;9.43;4.40;;;14.10;99.90;;;;;;5001096;28;20042;-72
2023/05/31 03:25:36;;;;;;;10.35;4.38;;;14.10;99.90;;;;;;5000654;28;20030;-72
2023/05/31 03:28:03;;;;;;;8.40;4.15;;;14.00;99.90;;;;;;5000302;28;20037;-72
2023/05/31 03:30:29;;;;;;;11.82;4.63;;;14.10;99.90;;;;;;5001460;28;20126;-72
2023/05/31 03:32:55;;;;;;;9.45;4.65;;;14.20;99.90;;;;;;5000849;28;20050;-72
2023/05/31 03:35:20;;;;;;;9.75;4.85;;;14.20;99.90;;;;;;5000945;28;20046;-67
2023/05/31 03:37:46;;;;;;;11.02;3.97;;;14.20;99.90;;;;;;5000339;28;20026;-67
2023/05/31 03:40:12;;;;;;;8.75;4.50;;;14.30;99.90;;;;;;5000143;28;20033;-68
2023/05/31 03:42:38;;;;;;;12.13;4.60;;;14.30;99.90;;;;;;5000180;28;20030;-68
2023/05/31 03:45:03;;;;;;;13.60;4.50;;;14.30;99.90;;;;;;5000131;28;20040;-67
2023/05/31 03:47:29;;;;;;;9.13;4.13;;;14.40;99.90;;;;;;4999657;28;20098;-67
2023/05/31 03:49:55;;;;;;;8.38;4.50;;;14.30;99.90;;;;;;5000067;28;20073;-67
2023/05/31 03:52:20;;;;;;;8.48;4.32;;;14.20;99.90;;;;;;4999769;28;20026;-67
2023/05/31 03:54:46;;;;;;;9.68;3.92;;;14.00;99.90;;;;;;5000484;28;20069;-67
2023/05/31 03:57:12;;;;;;;10.98;4.40;;;14.00;99.90;;;;;;4999658;28;20121;-67
2023/05/31 03:59:38;;;;;;;8.70;4.68;;;14.00;99.90;;;;;;4999871;28;20165;-68
2023/05/31 04:02:04;;;;;;;14.93;4.45;;;14.10;99.90;;;;;;4999676;28;20023;-70
2023/05/31 04:04:30;;;;;;;7.90;4.18;;;14.20;99.90;;;;;;5000303;28;20065;-71
2023/05/31 04:06:55;;;;;;;9.70;4.00;;;14.30;99.90;;;;;;4999738;28;20088;-70
2023/05/31 04:09:23;;;;;;;6.45;4.00;;;14.50;99.90;;;;;;4999514;28;20014;-70
2023/05/31 04:11:49;;;;;;;14.13;4.38;;;14.50;99.90;;;;;;4999633;28;20019;-70
2023/05/31 04:14:14;;;;;;;14.63;4.18;;;14.50;99.90;;;;;;4998786;28;20089;-70
2023/05/31 04:16:40;;;;;;;7.97;4.50;;;14.50;99.90;;;;;;4999137;28;20186;-70
2023/05/31 04:19:05;;;;;;;8.50;4.22;;;14.50;99.90;;;;;;4999160;28;20029;-70
2023/05/31 04:21:32;;;;;;;9.77;4.35;;;14.30;99.90;;;;;;5000175;28;20053;-70
2023/05/31 04:23:58;;;;;;;10.40;4.82;;;14.40;99.90;;;;;;4999019;28;20034;-70
2023/05/31 04:26:24;;;;;;;8.25;3.90;;;14.60;99.90;;;;;;4999770;28;20037;-70
2023/05/31 04:28:51;;;;;;;13.27;3.90;;;14.50;99.90;;;;;;4999083;28;20039;-70
2023/05/31 04:31:17;;;;;;;8.10;3.80;;;14.70;99.90;;;;;;4999056;28;20023;-70
2023/05/31 04:33:44;;;;;;;11.50;4.68;;;14.70;99.90;;;;;;4999970;28;20026;-70
2023/05/31 04:36:10;;;;;;;10.15;4.07;;;14.80;99.90;;;;;;4999503;28;20045;-70
2023/05/31 04:38:35;;;;;;;8.63;4.20;;;14.70;99.90;;;;;;4999838;28;20133;-68
2023/05/31 04:41:01;;;;;;;12.27;4.07;;;14.50;99.90;;;;;;4999655;28;20059;-68
2023/05/31 04:43:29;;;;;;;8.45;3.78;;;14.40;99.90;;;;;;4999199;28;20073;-68
2023/05/31 04:45:55;;;;;;;14.60;4.25;;;14.50;99.90;;;;;;5015926;28;20034;-68
2023/05/31 04:48:21;;;;;;;10.82;4.63;;;14.50;99.90;;;;;;4998848;28;20073;-68
2023/05/31 04:50:48;;;;;;;7.53;3.65;;;14.60;99.90;;;;;;4998931;28;20038;-70
2023/05/31 04:53:14;;;;;;;10.38;4.35;;;14.60;99.90;;;;;;4998486;28;20062;-70
2023/05/31 04:55:40;;;;;;;8.68;4.00;;;14.70;99.90;;;;;;4998799;28;20018;-70
2023/05/31 04:58:07;;;;;;;8.30;3.85;;;14.70;99.90;;;;;;4998787;28;20030;-71
2023/05/31 05:00:34;;;;;;;10.55;4.30;;;14.70;99.90;;;;;;4998503;28;20023;-71
2023/05/31 05:03:00;;;;;;;9.45;4.05;;;14.70;99.90;;;;;;4999193;28;20085;-72
2023/05/31 05:05:26;;;;;;;12.57;4.55;;;14.60;99.90;;;;;;4999636;28;20031;-72
2023/05/31 05:07:52;;;;;;;10.48;4.18;;;14.70;99.90;;;;;;4998750;28;20096;-72
2023/05/31 05:10:18;;;;;;;6.25;3.70;;;14.70;99.90;;;;;;4998568;28;20022;-72
2023/05/31 05:12:43;;;;;;;15.95;4.80;;;14.60;99.90;;;;;;4998675;28;20053;-72
2023/05/31 05:15:09;;;;;;;8.60;3.75;;;14.60;99.90;;;;;;4998592;28;20023;-73
2023/05/31 05:17:36;;;;;;;9.57;4.07;;;14.80;99.90;;;;;;4999318;28;20023;-72
2023/05/31 05:20:01;;;;;;;5.57;3.63;;;15.10;99.90;;;;;;4998464;28;20026;-72
2023/05/31 05:22:27;;;;;;;12.50;4.32;;;15.10;99.90;;;;;;4998701;28;20037;-73
2023/05/31 05:24:52;;;;;;;10.60;4.32;;;15.20;99.90;;;;;;4998559;28;20026;-73
2023/05/31 05:27:21;;;;;;;10.02;3.92;;;15.20;99.90;;;;;;4997940;28;20030;-72
2023/05/31 05:29:47;;;;;;;10.05;4.20;;;15.30;99.90;;;;;;4998401;28;20030;-72
2023/05/31 05:32:12;;;;;;;13.32;4.13;;;15.40;99.90;;;;;;4998360;28;20019;-72
2023/05/31 05:34:38;;;;;;;14.57;4.28;;;15.40;99.90;;;;;;4999074;28;20026;-72
2023/05/31 05:37:03;;;;;;;8.60;4.30;;;15.40;99.90;;;;;;4998877;28;20034;-73
2023/05/31 05:39:29;;;;;;;9.15;4.05;;;15.40;99.90;;;;;;4998242;28;20023;-73
2023/05/31 05:41:54;;;;;;;9.93;4.03;;;15.50;99.90;;;;;;4997873;28;20030;-73
2023/05/31 05:44:20;;;;;;;16.85;4.10;;;15.60;99.90;;;;;;4998137;28;20029;-72
2023/05/31 05:46:45;;;;;;;10.27;4.10;;;15.70;99.90;;;;;;4997652;28;20042;-72
2023/05/31 05:49:11;;;;;;;6.20;3.70;;;15.70;99.90;;;;;;4997559;28;20019;-73
2023/05/31 05:51:37;;;;;;;12.25;4.85;;;15.80;99.90;;;;;;4998429;28;20026;-72
2023/05/31 05:54:03;;;;;;;10.70;4.03;;;16.00;99.90;;;;;;4998644;28;20049;-73
2023/05/31 05:56:28;;;;;;;10.30;3.85;;;16.00;99.90;;;;;;4997823;28;20057;-73
2023/05/31 05:58:54;;;;;;;7.40;3.85;;;16.10;99.90;;;;;;4998112;28;20073;-73
2023/05/31 06:01:20;;;;;;;12.63;3.95;;;16.00;99.90;;;;;;4997470;28;20030;-73
2023/05/31 06:03:47;;;;;;;9.68;3.90;;;16.10;99.90;;;;;;4997746;28;20030;-73
2023/05/31 06:06:13;;;;;;;8.20;3.30;;;16.30;99.90;;;;;;4998113;28;20030;-73
2023/05/31 06:08:39;;;;;;;11.63;4.40;;;16.30;99.90;;;;;;4997416;28;20029;-73
2023/05/31 06:11:04;;;;;;;11.63;3.80;;;16.40;99.90;;;;;;4998202;28;20022;-72
2023/05/31 06:13:30;;;;;;;5.18;3.15;;;16.40;99.90;;;;;;4998373;28;20026;-71
2023/05/31 06:15:55;;;;;;;8.10;3.40;;;16.50;99.90;;;;;;4998106;28;20018;-71
2023/05/31 06:18:21;;;;;;;10.48;3.38;;;16.60;99.90;;;;;;4997264;28;20018;-70
2023/05/31 06:20:46;;;;;;;11.30;3.83;;;16.70;99.90;;;;;;4997178;28;20019;-71
2023/05/31 06:23:12;;;;;;;11.52;4.10;;;16.80;99.90;;;;;;4997936;28;20042;-70
2023/05/31 06:25:38;;;;;;;8.45;3.45;;;16.80;99.90;;;;;;4996932;28;20034;-70
2023/05/31 06:28:03;;;;;;;7.18;3.67;;;16.90;99.90;;;;;;4996945;28;20100;-71
2023/05/31 06:30:29;;;;;;;7.07;2.92;;;16.90;99.90;;;;;;4998460;28;20113;-72
2023/05/31 06:32:55;;;;;;;8.60;3.30;;;16.90;99.90;;;;;;4997017;28;20029;-72
2023/05/31 06:35:22;;;;;;;5.10;2.30;;;17.00;99.90;;;;;;4998280;28;20022;-73
2023/05/31 06:37:48;;;;;;;9.32;2.83;;;17.00;99.90;;;;;;4997377;28;20037;-73
2023/05/31 06:40:14;;;;;;;7.30;2.47;;;17.10;99.90;;;;;;4996722;28;20026;-73
2023/05/31 06:42:40;;;;;;;5.10;2.50;;;17.30;99.90;;;;;;4996862;28;20042;-73
2023/05/31 06:45:07;;;;;;;8.45;3.00;;;17.40;99.90;;;;;;4996902;28;20035;-70
2023/05/31 06:47:32;;;;;;;5.75;2.63;;;17.40;99.90;;;;;;4996814;28;20022;-69
2023/05/31 06:49:58;;;;;;;11.48;2.58;;;17.50;99.90;;;;;;4996609;28;20025;-69
2023/05/31 06:52:24;;;;;;;6.88;2.65;;;17.50;99.90;;;;;;4997567;28;20077;-69
2023/05/31 06:54:50;;;;;;;8.50;3.08;;;17.60;99.90;;;;;;4996528;28;20022;-72
2023/05/31 06:57:16;;;;;;;4.45;2.42;;;17.70;99.90;;;;;;4997664;28;20080;-71
2023/05/31 06:59:42;;;;;;;7.43;2.75;;;17.70;99.90;;;;;;4997005;28;20034;-71
2023/05/31 07:02:08;;;;;;;13.07;2.67;;;17.80;99.90;;;;;;4996587;28;20036;-71
2023/05/31 07:04:34;;;;;;;5.85;2.58;;;17.80;99.90;;;;;;4996708;28;20073;-70
2023/05/31 07:06:59;;;;;;;6.90;2.28;;;17.90;99.90;;;;;;4996523;28;20062;-71
2023/05/31 07:09:25;;;;;;;6.70;2.40;;;18.00;99.90;;;;;;4996904;28;20054;-70
2023/05/31 07:11:50;;;;;;;8.02;2.15;;;18.00;99.90;;;;;;4997417;28;20026;-69
2023/05/31 07:14:16;;;;;;;8.70;2.42;;;18.00;99.90;;;;;;4997325;28;20018;-69
2023/05/31 07:16:41;;;;;;;12.45;2.58;;;18.10;99.90;;;;;;4997400;28;20030;-69
2023/05/31 07:19:07;;;;;;;8.13;2.53;;;18.20;99.90;;;;;;4996690;28;20030;-69
2023/05/31 07:21:33;;;;;;;10.77;2.40;;;18.40;99.90;;;;;;4996523;28;20031;-69
2023/05/31 07:23:58;;;;;;;8.80;2.20;;;18.50;99.90;;;;;;4997285;28;20037;-69
2023/05/31 07:26:24;;;;;;;10.63;2.63;;;18.50;99.90;;;;;;4996532;28;20078;-69
2023/05/31 07:28:53;;;;;;;6.75;2.10;;;18.50;99.90;;;;;;4996340;28;20062;-69
2023/05/31 07:31:19;;;;;;;5.72;2.72;;;18.60;99.90;;;;;;4997241;28;20031;-71
2023/05/31 07:33:44;;;;;;;14.35;3.42;;;18.70;99.90;;;;;;4996531;28;20050;-71
2023/05/31 07:36:11;;;;;;;9.65;2.70;;;18.70;99.90;;;;;;4996200;28;20026;-71
2023/05/31 07:38:36;;;;;;;6.93;3.20;;;18.80;99.90;;;;;;4997164;28;20030;-71
2023/05/31 07:41:02;;;;;;;10.40;2.90;;;18.80;99.90;;;;;;4997193;28;20026;-71
2023/05/31 07:43:29;;;;;;;7.45;2.90;;;18.80;99.90;;;;;;4996229;28;20034;-71
2023/05/31 07:45:56;;;;;;;6.80;2.92;;;18.90;99.90;;;;;;4997153;28;20105;-72
2023/05/31 07:48:23;;;;;;;15.20;3.25;;;19.00;99.90;;;;;;4996233;28;20022;-72
2023/05/31 07:50:50;;;;;;;9.20;2.75;;;19.20;99.90;;;;;;4999813;28;20018;-72
2023/05/31 07:53:15;;;;;;;4.80;3.17;;;19.30;99.90;;;;;;5000823;28;20026;-72
2023/05/31 07:55:41;;;;;;;13.20;3.38;;;19.20;99.90;;;;;;5000936;28;20018;-72
2023/05/31 07:58:07;;;;;;;10.30;2.70;;;19.30;99.90;;;;;;4999612;28;20088;-72
2023/05/31 08:00:33;;;;;;;10.18;2.95;;;19.40;99.90;;;;;;4999678;28;20030;-72
2023/05/31 08:02:58;;;;;;;8.07;2.78;;;19.50;99.90;;;;;;4999710;28;20131;-71
2023/05/31 08:05:24;;;;;;;8.27;2.60;;;19.60;99.90;;;;;;5000590;28;20030;-71
2023/05/31 08:07:51;;;;;;;9.57;2.60;;;19.90;99.90;;;;;;4999959;28;20117;-69
2023/05/31 08:10:16;;;;;;;5.75;1.80;;;20.00;99.90;;;;;;4999352;28;20073;-71
2023/05/31 08:12:42;;;;;;;5.55;2.00;;;20.30;99.90;;;;;;4999479;28;20022;-72
2023/05/31 08:15:10;;;;;;;4.78;2.78;;;20.50;99.90;;;;;;4999385;28;20026;-71
2023/05/31 08:17:36;;;;;;;4.38;1.80;;;20.70;99.90;;;;;;4999203;28;20031;-71
2023/05/31 08:20:10;;;;;;;4.13;1.73;;;20.90;99.90;;;;;;4999627;28;20026;-71
2023/05/31 08:22:35;;;;;;;2.40;1.63;;;21.20;99.90;;;;;;5000255;28;20027;-71
2023/05/31 08:25:01;;;;;;;7.40;2.08;;;21.10;99.90;;;;;;5016350;28;20080;-72
2023/05/31 08:27:26;;;;;;;8.88;2.10;;;21.20;99.90;;;;;;4999081;28;20060;-72
2023/05/31 08:29:52;;;;;;;8.32;2.20;;;21.40;99.90;;;;;;4999347;28;20030;-72
2023/05/31 08:32:17;;;;;;;7.55;2.28;;;21.50;99.90;;;;;;4999105;28;20037;-72
2023/05/31 08:34:45;;;;;;;4.60;2.10;;;21.50;99.90;;;;;;4999667;28;20014;-72
2023/05/31 08:37:10;;;;;;;5.03;2.17;;;21.30;99.90;;;;;;4999014;28;20049;-72
2023/05/31 08:39:36;;;;;;;4.53;1.80;;;21.20;99.90;;;;;;4999286;28;20022;-72
2023/05/31 08:42:16;;;;;;;5.28;2.03;;;21.50;99.90;;;;;;4998775;28;20030;-72
2023/05/31 08:44:42;;;;;;;6.25;2.17;;;21.60;99.90;;;;;;4999665;28;20022;-72
2023/05/31 08:47:17;;;;;;;6.78;1.88;;;21.90;99.90;;;;;;4998626;28;20041;-72
2023/05/31 08:49:44;;;;;;;6.07;2.13;;;22.00;99.90;;;;;;4998779;28;20022;-72
2023/05/31 08:52:10;;;;;;;4.30;1.77;;;22.00;99.90;;;;;;4998705;28;20023;-72
2023/05/31 08:54:37;;;;;;;9.00;1.77;;;22.10;99.90;;;;;;4998558;28;20026;-72
2023/05/31 08:57:03;;;;;;;6.50;1.65;;;22.30;99.90;;;;;;4998868;28;20066;-72
2023/05/31 08:59:30;;;;;;;4.28;1.55;;;22.30;99.90;;;;;;4999480;28;20026;-72
2023/05/31 09:01:57;;;;;;;4.57;1.90;;;22.30;99.90;;;;;;4998812;28;20077;-72
2023/05/31 09:04:24;;;;;;;13.32;2.55;;;22.20;99.90;;;;;;5014674;28;20034;-72
2023/05/31 09:06:51;;;;;;;5.20;1.67;;;22.30;99.90;;;;;;4999097;28;20064;-72
2023/05/31 09:09:16;;;;;;;5.25;1.83;;;22.60;99.90;;;;;;4998826;28;20029;-72
2023/05/31 09:11:42;;;;;;;5.43;1.83;;;22.90;99.90;;;;;;4998538;28;20022;-72
2023/05/31 09:14:11;;;;;;;6.20;2.08;;;22.70;99.90;;;;;;4998251;28;20033;-72
2023/05/31 09:16:37;;;;;;;4.70;1.45;;;22.90;99.90;;;;;;4998456;28;20081;-72
2023/05/31 09:19:05;;;;;;;4.15;1.50;;;23.00;99.80;;;;;;4998163;28;20030;-72
2023/05/31 09:21:41;;;;;;;6.63;1.88;;;23.10;98.90;;;;;;4998066;28;20061;-72
2023/05/31 09:24:07;;;;;;;3.50;1.73;;;23.10;98.10;;;;;;4998984;28;20049;-72
2023/05/31 09:26:33;;;;;;;2.90;1.73;;;23.20;97.70;;;;;;4998090;28;20031;-72
2023/05/31 09:28:59;;;;;;;5.35;1.42;;;23.30;97.00;;;;;;4997936;28;20045;-72
2023/05/31 09:31:25;;;;;;;4.15;1.95;;;23.30;95.90;;;;;;4998413;28;20030;-72
2023/05/31 09:33:51;;;;;;;7.13;1.52;;;23.30;99.20;;;;;;4997780;28;20033;-72
2023/05/31 09:36:28;;;;;;;3.80;1.90;;;23.40;96.60;;;;;;4997772;28;20026;-72
2023/05/31 09:39:04;;;;;;;4.63;1.85;;;23.70;96.50;;;;;;4997784;28;20089;-72
2023/05/31 09:41:31;;;;;;;4.53;1.63;;;23.60;95.90;;;;;;4997718;28;20081;-72
2023/05/31 09:43:57;;;;;;;6.20;1.90;;;23.70;95.50;;;;;;4997714;28;20026;-72
2023/05/31 09:46:24;;;;;;;5.30;2.08;;;23.80;95.70;;;;;;4997838;28;20034;-72
2023/05/31 09:49:02;;;;;;;7.75;1.70;;;23.70;94.70;;;;;;5014197;28;20058;-72
2023/05/31 09:51:28;;;;;;;7.80;2.05;;;23.90;93.80;;;;;;4997527;28;20022;-72
2023/05/31 09:53:57;;;;;;;9.38;2.83;;;23.70;95.30;;;;;;4998914;28;20019;-72
2023/05/31 09:56:25;;;;;;;5.80;1.60;;;23.80;95.70;;;;;;4998333;28;20049;-72
2023/05/31 09:58:51;;;;;;;7.93;1.88;;;23.80;95.60;;;;;;4997280;28;20033;-72
2023/05/31 10:01:18;;;;;;;6.53;1.83;;;23.90;95.70;;;;;;4997747;28;20034;-72
2023/05/31 10:03:44;;;;;;;7.30;1.80;;;23.80;96.70;;;;;;4997270;28;20129;-72
2023/05/31 10:06:11;;;;;;;4.65;1.92;;;24.00;94.70;;;;;;4998377;28;20023;-72
2023/05/31 10:08:37;;;;;;;3.42;1.80;;;24.00;94.10;;;;;;4997181;28;20023;-72
2023/05/31 10:11:03;;;;;;;4.00;1.90;;;24.20;94.40;;;;;;4998070;28;20029;-72
2023/05/31 10:13:30;;;;;;;137.70;13.85;;;24.40;95.60;;;;;;4996313;28;20117;-72
2023/05/31 10:16:03;;;;;;;3.95;1.77;;;24.60;94.30;;;;;;5013511;28;20032;-74
2023/05/31 10:18:32;;;;;;;3.20;1.20;;;24.80;92.20;;;;;;4998023;28;20097;-73
2023/05/31 10:21:10;;;;;;;1.95;1.27;;;25.10;92.00;;;;;;4997886;28;20022;-72
2023/05/31 10:23:43;;;;;;;3.00;1.50;;;25.00;90.00;;;;;;4997345;28;20022;-72
2023/05/31 10:26:20;;;;;;;5.82;1.52;;;25.20;86.30;;;;;;4996916;28;20023;-72
2023/05/31 10:29:10;;;;;;;4.72;1.80;;;25.30;85.20;;;;;;4996880;28;20118;-72
2023/05/31 10:31:48;;;;;;;5.72;1.60;;;25.10;84.30;;;;;;4996977;28;20069;-72
2023/05/31 10:34:25;;;;;;;3.13;1.40;;;25.10;83.20;;;;;;4997243;28;20022;-73
2023/05/31 10:36:51;;;;;;;10.40;1.92;;;25.10;83.70;;;;;;4997217;28;20037;-72
2023/05/31 10:39:33;;;;;;;7.13;1.48;;;25.20;84.00;;;;;;5013206;28;20037;-73
2023/05/31 10:42:46;;;;;;;3.42;1.85;;;25.60;83.30;;;;;;4997949;28;20093;-73
2023/05/31 10:45:25;;;;;;;7.25;2.00;;;25.50;81.00;;;;;;4991337;28;20031;-73
2023/05/31 10:48:13;;;;;;;5.45;1.73;;;25.50;86.40;;;;;;4997357;28;20038;-73
2023/05/31 10:50:56;;;;;;;4.07;1.45;;;26.10;82.10;;;;;;4997530;28;20029;-73
2023/05/31 10:53:27;;;;;;;3.67;1.55;;;26.10;80.50;;;;;;4997003;28;20034;-73
2023/05/31 10:55:52;;;;;;;3.30;1.45;;;26.00;79.40;;;;;;4997380;28;20044;-73
2023/05/31 10:58:28;;;;;;;8.23;1.85;;;26.40;79.70;;;;;;4996673;28;20026;-73
2023/05/31 11:01:02;;;;;;;4.93;1.85;;;26.40;78.30;;;;;;4997741;28;20073;-74
2023/05/31 11:03:29;;;;;;;8.23;1.80;;;26.80;78.10;;;;;;4997609;28;20034;-74
2023/05/31 11:05:59;;;;;;;4.93;1.27;;;27.10;77.40;;;;;;4996638;28;20027;-73
2023/05/31 11:08:26;;;;;;;2.38;1.40;;;27.00;75.40;;;;;;4996746;28;20034;-74
2023/05/31 11:10:51;;;;;;;2.78;1.80;;;27.10;75.20;;;;;;4997478;28;20026;-74
2023/05/31 11:13:18;;;;;;;5.53;1.90;;;27.20;75.20;;;;;;4996701;28;20018;-74
2023/05/31 11:15:45;;;;;;;6.38;2.00;;;27.40;77.10;;;;;;4996523;28;20049;-73
2023/05/31 11:18:26;;;;;;;5.25;1.98;;;27.60;79.90;;;;;;5012903;28;20030;-74
2023/05/31 11:20:51;;;;;;;4.47;1.77;;;27.80;75.80;;;;;;4996841;28;20090;-74
2023/05/31 11:23:24;;;;;;;2.33;1.50;;;28.00;76.30;;;;;;4996698;28;20069;-75
2023/05/31 11:26:10;;;;;;;4.50;1.88;;;27.90;73.70;;;;;;5000900;28;20030;-75
2023/05/31 11:28:56;;;;;;;2.78;1.52;;;27.90;72.30;;;;;;5000973;28;20057;-75
2023/05/31 11:31:57;;;;;;;5.90;1.70;;;28.00;74.00;;;;;;5000162;28;20061;-77
2023/05/31 11:34:24;;;;;;;3.78;1.77;;;27.70;74.00;;;;;;5017195;28;20054;-77
2023/05/31 11:36:50;;;;;;;5.35;1.90;;;27.90;71.90;;;;;;5016706;28;20169;-78
2023/05/31 11:39:19;;;;;;;9.52;1.77;;;27.90;75.40;;;;;;5000074;28;20094;-78
2023/05/31 11:41:45;;;;;;;5.18;1.70;;;28.00;72.50;;;;;;5001094;28;20033;-77
2023/05/31 11:44:11;;;;;;;3.53;1.60;;;28.20;74.40;;;;;;5001093;28;20026;-77
2023/05/31 11:46:42;;;;;;;3.28;1.30;;;28.70;70.70;;;;;;5000748;28;20061;-77
2023/05/31 11:49:11;;;;;;;;;;;27.90;70.30;;;;;;5016599;28;20097;-77
2023/05/31 11:51:38;;;;;;;2.63;1.67;;;27.80;71.40;;;;;;4999872;28;19905;-75
2023/05/31 11:54:05;;;;;;;3.35;1.63;;;28.00;77.50;;;;;;5000844;28;20033;-76
2023/05/31 11:56:37;;;;;;;3.95;1.58;;;28.30;69.60;;;;;;5000138;28;20026;-76
2023/05/31 11:59:03;;;;;;;3.30;1.40;;;28.50;70.90;;;;;;5000550;28;20026;-76
2023/05/31 12:01:42;;;;;;;4.60;1.65;;;28.60;68.10;;;;;;5000643;28;20026;-75
2023/05/31 12:04:07;;;;;;;6.60;1.75;;;28.50;70.30;;;;;;4999660;28;20023;-75
2023/05/31 12:06:33;;;;;;;2.08;1.45;;;28.40;68.30;;;;;;4999417;28;20030;-74
2023/05/31 12:08:59;;;;;;;4.57;1.45;;;28.50;67.70;;;;;;4999754;28;20026;-74
2023/05/31 12:11:27;;;;;;;4.95;1.60;;;28.50;68.70;;;;;;4999666;28;20117;-74
2023/05/31 12:13:58;;;;;;;3.03;1.48;;;28.50;67.70;;;;;;4999438;28;20029;-74
2023/05/31 12:16:26;;;;;;;2.83;1.67;;;28.50;67.40;;;;;;5000268;28;20034;-74
2023/05/31 12:18:52;;;;;;;3.25;1.40;;;29.00;68.10;;;;;;4999702;28;20042;-74
2023/05/31 12:21:18;;;;;;;3.45;1.70;;;28.60;67.90;;;;;;4999256;28;20034;-74
2023/05/31 12:23:57;;;;;;;3.38;1.80;;;28.70;68.40;;;;;;5000105;28;20026;-74
2023/05/31 12:26:26;;;;;;;3.65;1.60;;;28.70;67.40;;;;;;5000303;28;20026;-74
2023/05/31 12:28:51;;;;;;;3.83;1.75;;;28.50;66.70;;;;;;5015658;28;20036;-75
2023/05/31 12:31:22;;;;;;;6.65;1.75;;;28.20;67.90;;;;;;5000288;28;20097;-75
2023/05/31 12:34:00;;;;;;;;;;;28.70;70.00;;;;;;4999458;28;20090;-75
2023/05/31 12:36:27;;;;;;;3.75;1.65;;;28.80;66.60;;;;;;4999072;28;19949;-75
2023/05/31 12:38:56;;;;;;;2.30;1.50;;;28.40;66.00;;;;;;4998946;28;20121;-75
2023/05/31 12:41:22;;;;;;;3.88;1.35;;;28.10;66.40;;;;;;4999451;28;20030;-75
2023/05/31 12:43:48;;;;;;;2.50;1.63;;;27.60;66.50;;;;;;4998955;28;20061;-74
2023/05/31 12:46:20;;;;;;;3.28;1.45;;;27.10;67.00;;;;;;4999371;28;20031;-73
2023/05/31 12:48:49;;;;;;;3.40;1.67;;;26.90;68.70;;;;;;4999773;28;20022;-73